createdAt,value
2017-05-17T00:00:18.103Z,10.40
2017-05-17T00:02:46.608Z,10.40
2017-05-17T00:05:15.112Z,10.40
2017-05-17T00:07:43.901Z,10.20
2017-05-17T00:10:12.439Z,10.10
2017-05-17T00:12:40.945Z,10.00
2017-05-17T00:15:09.487Z,9.90
2017-05-17T00:17:37.984Z,9.90
2017-05-17T00:20:06.492Z,9.80
2017-05-17T00:22:35.040Z,9.70
2017-05-17T00:25:03.539Z,9.70
2017-05-17T00:27:32.037Z,9.70
2017-05-17T00:30:00.600Z,9.80
2017-05-17T00:32:29.095Z,9.80
2017-05-17T00:34:57.595Z,9.80
2017-05-17T00:37:37.881Z,9.80
2017-05-17T00:40:18.412Z,9.80
2017-05-17T00:42:58.857Z,9.80
2017-05-17T00:45:39.144Z,9.70
2017-05-17T00:48:19.553Z,9.70
2017-05-17T00:50:59.820Z,9.60
2017-05-17T00:53:28.360Z,9.60
2017-05-17T00:55:56.860Z,9.50
2017-05-17T00:58:25.364Z,9.50
2017-05-17T01:00:53.908Z,9.50
2017-05-17T01:03:22.409Z,9.50
2017-05-17T01:05:50.909Z,9.60
2017-05-17T01:08:19.451Z,9.50
2017-05-17T01:10:47.948Z,9.50
2017-05-17T01:13:16.444Z,9.40
2017-05-17T01:15:45.021Z,9.30
2017-05-17T01:18:13.517Z,9.40
2017-05-17T01:20:42.022Z,9.30
2017-05-17T01:23:10.589Z,9.30
2017-05-17T01:25:39.093Z,9.30
2017-05-17T01:28:07.596Z,9.30
2017-05-17T01:30:36.141Z,9.30
2017-05-17T01:33:04.656Z,9.20
2017-05-17T01:35:33.168Z,9.20
2017-05-17T01:38:01.744Z,9.20
2017-05-17T01:40:30.243Z,9.30
2017-05-17T01:42:58.753Z,9.20
2017-05-17T01:45:27.296Z,9.20
2017-05-17T01:47:55.797Z,9.20
2017-05-17T01:50:24.300Z,9.30
2017-05-17T01:52:52.841Z,9.20
2017-05-17T01:55:21.343Z,9.20
2017-05-17T01:57:49.844Z,9.20
2017-05-17T02:00:18.411Z,9.10
2017-05-17T02:02:46.911Z,9.10
2017-05-17T02:05:33.163Z,9.10
2017-05-17T02:08:01.764Z,9.10
2017-05-17T02:10:30.264Z,9.10
2017-05-17T02:12:58.804Z,9.10
2017-05-17T02:15:27.303Z,9.10
2017-05-17T02:17:55.805Z,9.10
2017-05-17T02:20:24.379Z,9.00
2017-05-17T02:22:53.616Z,9.10
2017-05-17T02:25:22.127Z,9.10
2017-05-17T02:27:50.667Z,9.10
2017-05-17T02:30:19.171Z,9.10
2017-05-17T02:32:47.672Z,9.10
2017-05-17T02:35:16.244Z,9.00
2017-05-17T02:37:44.746Z,9.00
2017-05-17T02:40:13.239Z,9.00
2017-05-17T02:42:41.780Z,9.00
2017-05-17T02:45:10.300Z,9.00
2017-05-17T02:47:38.804Z,9.00
2017-05-17T02:50:07.344Z,9.00
2017-05-17T02:52:35.838Z,9.00
2017-05-17T02:55:04.333Z,9.00
2017-05-17T02:57:32.883Z,9.00
2017-05-17T03:00:01.384Z,9.00
2017-05-17T03:02:29.883Z,9.00
2017-05-17T03:04:58.428Z,9.00
2017-05-17T03:07:26.954Z,9.00
2017-05-17T03:09:55.479Z,9.00
2017-05-17T03:12:24.854Z,9.00
2017-05-17T03:14:53.355Z,9.00
2017-05-17T03:17:21.860Z,9.00
2017-05-17T03:19:50.408Z,9.10
2017-05-17T03:22:18.903Z,9.20
2017-05-17T03:24:47.405Z,9.20
2017-05-17T03:27:15.950Z,9.30
2017-05-17T03:29:44.443Z,9.40
2017-05-17T03:32:12.940Z,9.60
2017-05-17T03:34:41.485Z,10.40
2017-05-17T03:37:09.988Z,11.30
2017-05-17T03:39:38.496Z,12.40
2017-05-17T03:42:07.040Z,13.40
2017-05-17T03:44:35.541Z,14.30
2017-05-17T03:47:04.044Z,14.60
2017-05-17T03:49:32.696Z,14.70
2017-05-17T03:52:01.199Z,14.90
2017-05-17T03:54:29.704Z,15.40
2017-05-17T03:56:58.246Z,16.40
2017-05-17T03:59:26.772Z,17.60
2017-05-17T04:01:55.276Z,18.80
2017-05-17T04:04:23.850Z,19.90
2017-05-17T04:06:52.372Z,20.50
2017-05-17T04:09:20.869Z,20.80
2017-05-17T04:11:49.413Z,20.90
2017-05-17T04:14:17.924Z,21.70
2017-05-17T04:16:46.427Z,22.40
2017-05-17T04:19:14.971Z,23.20
2017-05-17T04:21:44.393Z,23.90
2017-05-17T04:24:12.897Z,24.50
2017-05-17T04:26:41.440Z,25.40
2017-05-17T04:34:08.212Z,25.70
2017-05-17T04:36:36.715Z,25.30
2017-05-17T04:57:19.917Z,23.30
2017-05-17T04:59:48.415Z,22.80
2017-05-17T05:02:16.926Z,23.00
2017-05-17T05:04:45.485Z,23.10
2017-05-17T05:07:13.997Z,23.30
2017-05-17T05:09:42.510Z,23.80
2017-05-17T05:12:11.061Z,23.60
2017-05-17T05:14:39.572Z,23.80
2017-05-17T05:17:08.084Z,24.70
2017-05-17T05:19:36.640Z,26.30
2017-05-17T05:22:05.144Z,27.20
2017-05-17T05:24:33.652Z,28.30
2017-05-17T05:27:02.204Z,29.60
2017-05-17T05:29:30.716Z,31.10
2017-05-17T05:31:59.230Z,30.90
2017-05-17T05:34:27.785Z,32.50
2017-05-17T05:36:56.309Z,32.10
2017-05-17T05:39:24.820Z,32.50
2017-05-17T05:41:53.385Z,33.10
2017-05-17T05:44:21.906Z,32.70
2017-05-17T05:46:50.425Z,34.10
2017-05-17T05:49:19.008Z,34.20
2017-05-17T05:51:47.512Z,35.70
2017-05-17T05:54:16.015Z,35.20
2017-05-17T05:56:44.560Z,34.00
2017-05-17T05:59:13.068Z,33.70
2017-05-17T06:01:41.572Z,35.00
2017-05-17T06:04:10.128Z,35.30
2017-05-17T06:06:38.641Z,34.00
2017-05-17T06:09:07.189Z,34.00
2017-05-17T06:11:35.746Z,33.60
2017-05-17T06:14:04.258Z,34.60
2017-05-17T06:16:32.768Z,34.50
2017-05-17T06:19:01.331Z,35.10
2017-05-17T06:21:29.846Z,35.20
2017-05-17T06:23:58.357Z,34.20
2017-05-17T06:26:26.907Z,34.70
2017-05-17T06:28:55.421Z,34.70
2017-05-17T06:31:23.929Z,34.80
2017-05-17T06:33:52.495Z,35.10
2017-05-17T06:36:21.000Z,34.00
2017-05-17T06:38:49.516Z,34.40
2017-05-17T06:41:18.079Z,35.20
2017-05-17T06:43:46.583Z,34.80
2017-05-17T06:46:15.092Z,33.60
2017-05-17T06:48:43.652Z,33.50
2017-05-17T06:51:12.165Z,34.80
2017-05-17T06:53:40.673Z,36.40
2017-05-17T06:56:09.225Z,37.10
2017-05-17T06:58:37.735Z,37.70
2017-05-17T07:01:06.234Z,35.60
2017-05-17T07:03:34.782Z,35.40
2017-05-17T07:06:03.287Z,35.20
2017-05-17T07:08:31.808Z,35.90
2017-05-17T07:11:00.364Z,36.30
2017-05-17T07:13:28.916Z,35.00
2017-05-17T07:15:57.429Z,35.10
2017-05-17T07:18:25.989Z,36.00
2017-05-17T07:20:54.501Z,37.00
2017-05-17T07:23:23.013Z,36.30
2017-05-17T07:25:51.565Z,35.30
2017-05-17T07:28:20.069Z,36.10
2017-05-17T07:30:48.586Z,36.90
2017-05-17T07:33:17.145Z,37.60
2017-05-17T07:35:45.648Z,36.70
2017-05-17T07:38:14.163Z,37.80
2017-05-17T07:40:42.705Z,38.80
2017-05-17T07:43:11.213Z,39.20
2017-05-17T07:45:39.715Z,38.40
2017-05-17T07:48:08.264Z,37.60
2017-05-17T07:50:36.765Z,37.60
2017-05-17T07:53:05.275Z,37.70
2017-05-17T07:55:33.823Z,36.40
2017-05-17T07:58:02.329Z,36.30
2017-05-17T08:00:30.840Z,37.10
2017-05-17T08:02:59.387Z,36.10
2017-05-17T08:05:27.892Z,35.90
2017-05-17T08:07:56.396Z,37.10
2017-05-17T08:10:24.939Z,37.80
2017-05-17T08:12:53.445Z,37.30
2017-05-17T08:15:21.947Z,36.80
2017-05-17T08:17:50.492Z,37.40
2017-05-17T08:20:18.998Z,38.70
2017-05-17T08:22:47.500Z,39.30
2017-05-17T08:25:16.041Z,37.00
2017-05-17T08:27:44.554Z,35.70
2017-05-17T08:30:13.064Z,36.10
2017-05-17T08:32:41.603Z,36.70
2017-05-17T08:35:10.113Z,36.40
2017-05-17T08:37:38.621Z,35.60
2017-05-17T08:40:07.168Z,35.60
2017-05-17T08:42:35.709Z,34.60
2017-05-17T08:45:04.208Z,35.40
2017-05-17T08:47:32.743Z,35.80
2017-05-17T08:50:01.252Z,35.80
2017-05-17T08:52:29.765Z,36.70
2017-05-17T08:54:58.313Z,37.10
2017-05-17T08:57:26.816Z,37.90
2017-05-17T08:59:55.327Z,36.30
2017-05-17T09:02:23.877Z,34.60
2017-05-17T09:04:52.383Z,34.00
2017-05-17T09:07:20.889Z,33.00
2017-05-17T09:09:49.432Z,32.40
2017-05-17T09:12:17.941Z,32.60
2017-05-17T09:14:46.455Z,33.90
2017-05-17T09:17:15.017Z,34.40
2017-05-17T09:19:43.527Z,34.60
2017-05-17T09:22:12.032Z,34.10
2017-05-17T09:24:40.581Z,33.70
2017-05-17T09:27:09.089Z,33.00
2017-05-17T09:29:37.614Z,32.40
2017-05-17T09:32:06.163Z,31.20
2017-05-17T09:34:34.661Z,30.40
2017-05-17T09:37:03.165Z,29.70
2017-05-17T09:39:31.714Z,28.90
2017-05-17T09:42:00.219Z,28.80
2017-05-17T09:44:28.729Z,28.60
2017-05-17T09:46:57.265Z,28.30
2017-05-17T09:49:25.768Z,28.00
2017-05-17T09:51:54.282Z,27.30
2017-05-17T09:54:22.828Z,26.70
2017-05-17T09:56:51.335Z,26.50
2017-05-17T09:59:19.838Z,26.00
2017-05-17T10:01:48.375Z,25.50
2017-05-17T10:04:16.877Z,25.60
2017-05-17T10:06:45.385Z,25.60
2017-05-17T10:09:13.924Z,26.00
2017-05-17T10:11:42.435Z,26.30
2017-05-17T10:14:10.938Z,26.30
2017-05-17T10:16:39.514Z,25.10
2017-05-17T10:19:08.062Z,24.90
2017-05-17T10:21:36.566Z,24.90
2017-05-17T10:24:05.104Z,25.30
2017-05-17T10:26:33.600Z,25.00
2017-05-17T10:29:02.101Z,25.00
2017-05-17T10:31:30.641Z,25.20
2017-05-17T10:33:59.141Z,25.20
2017-05-17T10:36:27.643Z,25.30
2017-05-17T10:38:56.189Z,25.50
2017-05-17T10:41:24.689Z,25.90
2017-05-17T10:43:53.195Z,25.80
2017-05-17T10:46:21.741Z,25.40
2017-05-17T10:48:50.239Z,25.00
2017-05-17T10:51:18.746Z,24.70
2017-05-17T10:53:47.296Z,24.60
2017-05-17T10:56:15.805Z,24.60
2017-05-17T10:58:44.306Z,24.80
2017-05-17T11:01:12.852Z,24.90
2017-05-17T11:03:41.349Z,24.90
2017-05-17T11:06:09.857Z,24.60
2017-05-17T11:08:38.413Z,24.70
2017-05-17T11:11:06.917Z,24.80
2017-05-17T11:13:35.422Z,24.60
2017-05-17T11:16:03.983Z,24.70
2017-05-17T11:18:32.483Z,24.90
2017-05-17T11:21:00.990Z,25.00
2017-05-17T11:23:29.533Z,24.90
2017-05-17T11:25:58.053Z,24.50
2017-05-17T11:28:26.544Z,24.20
2017-05-17T11:30:55.105Z,23.90
2017-05-17T11:33:23.611Z,23.90
2017-05-17T11:35:52.111Z,23.90
2017-05-17T11:38:20.658Z,23.80
2017-05-17T11:40:49.163Z,23.70
2017-05-17T11:43:17.670Z,23.80
2017-05-17T11:45:46.249Z,24.10
2017-05-17T11:48:14.755Z,24.20
2017-05-17T11:50:43.254Z,24.00
2017-05-17T11:53:11.805Z,23.80
2017-05-17T11:55:40.310Z,23.90
2017-05-17T11:58:08.803Z,23.70
2017-05-17T12:00:37.349Z,23.50
2017-05-17T12:03:05.856Z,23.60
2017-05-17T12:05:34.365Z,23.80
2017-05-17T12:08:02.907Z,24.00
2017-05-17T12:10:31.404Z,24.00
2017-05-17T12:12:59.906Z,24.00
2017-05-17T12:15:28.452Z,24.00
2017-05-17T12:17:56.952Z,24.10
2017-05-17T12:20:25.459Z,24.30
2017-05-17T12:22:54.000Z,24.10
2017-05-17T12:25:22.499Z,23.90
2017-05-17T12:27:50.999Z,23.80
2017-05-17T12:30:19.553Z,24.00
2017-05-17T12:32:48.058Z,23.90
2017-05-17T12:35:16.571Z,23.70
2017-05-17T12:37:45.112Z,23.60
2017-05-17T12:40:13.623Z,23.80
2017-05-17T12:42:42.120Z,24.00
2017-05-17T12:45:10.693Z,23.90
2017-05-17T12:47:39.191Z,24.10
2017-05-17T12:50:07.692Z,24.10
2017-05-17T12:52:36.248Z,24.20
2017-05-17T12:55:04.760Z,24.20
2017-05-17T12:57:33.258Z,24.20
2017-05-17T13:00:01.801Z,24.10
2017-05-17T13:02:30.303Z,24.10
2017-05-17T13:04:58.815Z,23.70
2017-05-17T13:07:27.368Z,23.80
2017-05-17T13:09:55.866Z,23.90
2017-05-17T13:12:24.372Z,24.10
2017-05-17T13:14:52.927Z,24.30
2017-05-17T13:17:21.426Z,24.10
2017-05-17T13:19:49.925Z,24.20
2017-05-17T13:22:18.463Z,24.20
2017-05-17T13:24:46.965Z,24.30
2017-05-17T13:27:15.470Z,24.20
2017-05-17T13:29:44.277Z,23.90
2017-05-17T13:32:12.788Z,23.60
2017-05-17T13:34:41.284Z,23.60
2017-05-17T13:37:09.824Z,23.60
2017-05-17T13:39:38.325Z,23.60
2017-05-17T13:42:06.826Z,23.70
2017-05-17T13:44:35.367Z,23.80
2017-05-17T13:47:03.869Z,23.60
2017-05-17T13:49:32.380Z,23.50
2017-05-17T13:52:00.920Z,23.50
2017-05-17T13:54:29.424Z,23.60
2017-05-17T13:56:57.924Z,23.70
2017-05-17T13:59:26.462Z,23.70
2017-05-17T14:01:54.973Z,23.70
2017-05-17T14:04:23.473Z,23.90
2017-05-17T14:06:52.017Z,24.00
2017-05-17T14:09:20.517Z,24.00
2017-05-17T14:11:49.024Z,23.90
2017-05-17T14:14:17.565Z,23.70
2017-05-17T14:16:46.071Z,23.60
2017-05-17T14:19:14.564Z,23.60
2017-05-17T14:21:43.112Z,23.60
2017-05-17T14:24:11.617Z,23.80
2017-05-17T14:26:40.121Z,23.70
2017-05-17T14:29:08.670Z,23.50
2017-05-17T14:31:37.173Z,23.60
2017-05-17T14:34:05.677Z,23.70
2017-05-17T14:36:34.225Z,23.60
2017-05-17T14:39:02.724Z,23.40
2017-05-17T14:41:31.225Z,23.30
2017-05-17T14:43:59.777Z,23.30
2017-05-17T14:46:28.276Z,23.20
2017-05-17T14:48:56.777Z,23.30
2017-05-17T14:51:25.318Z,23.40
2017-05-17T14:53:53.817Z,23.30
2017-05-17T14:56:22.342Z,23.20
2017-05-17T14:58:50.891Z,23.10
2017-05-17T15:01:19.401Z,23.20
2017-05-17T15:03:47.908Z,23.10
2017-05-17T15:06:16.462Z,23.10
2017-05-17T15:08:44.962Z,23.20
2017-05-17T15:11:13.466Z,23.20
2017-05-17T15:13:42.004Z,23.20
2017-05-17T15:16:10.509Z,23.10
2017-05-17T15:18:39.009Z,23.20
2017-05-17T15:21:07.554Z,23.20
2017-05-17T15:23:36.066Z,23.10
2017-05-17T15:26:04.576Z,23.10
2017-05-17T15:28:33.131Z,23.10
2017-05-17T15:31:01.628Z,23.00
2017-05-17T15:33:30.129Z,23.00
2017-05-17T15:35:58.688Z,23.00
2017-05-17T15:38:27.189Z,22.90
2017-05-17T15:40:55.693Z,22.90
2017-05-17T15:43:24.244Z,22.80
2017-05-17T15:45:52.747Z,22.80
2017-05-17T15:48:21.253Z,22.70
2017-05-17T15:50:49.795Z,22.70
2017-05-17T15:53:18.302Z,22.70
2017-05-17T15:55:46.803Z,22.70
2017-05-17T15:58:15.353Z,22.80
2017-05-17T16:00:43.852Z,22.80
2017-05-17T16:03:12.353Z,22.80
2017-05-17T16:05:40.900Z,22.80
2017-05-17T16:08:09.399Z,22.80
2017-05-17T16:10:37.904Z,22.80
2017-05-17T16:13:06.444Z,22.70
2017-05-17T16:15:34.948Z,22.60
2017-05-17T16:18:03.479Z,22.60
2017-05-17T16:20:32.019Z,22.50
2017-05-17T16:23:00.540Z,22.50
2017-05-17T16:25:29.037Z,22.50
2017-05-17T16:27:57.582Z,22.50
2017-05-17T16:30:26.077Z,22.50
2017-05-17T16:32:54.581Z,22.40
2017-05-17T16:35:23.132Z,22.40
2017-05-17T16:37:51.633Z,22.40
2017-05-17T16:40:20.133Z,22.40
2017-05-17T16:42:48.667Z,22.40
2017-05-17T16:45:17.164Z,22.40
2017-05-17T16:47:45.669Z,22.40
2017-05-17T16:50:14.209Z,22.30
2017-05-17T16:52:43.711Z,22.30
2017-05-17T16:55:12.204Z,22.20
2017-05-17T16:57:40.745Z,22.10
2017-05-17T17:00:09.244Z,22.10
2017-05-17T17:02:37.756Z,22.00
2017-05-17T17:05:06.338Z,22.00
2017-05-17T17:07:34.841Z,22.00
2017-05-17T17:10:03.340Z,22.00
2017-05-17T17:12:31.885Z,22.00
2017-05-17T17:15:00.417Z,21.90
2017-05-17T17:17:28.916Z,21.90
2017-05-17T17:19:57.476Z,21.80
2017-05-17T17:22:25.992Z,21.80
2017-05-17T17:24:54.493Z,21.70
2017-05-17T17:27:23.041Z,21.60
2017-05-17T17:29:51.548Z,21.60
2017-05-17T17:32:20.102Z,21.50
2017-05-17T17:34:48.663Z,21.50
2017-05-17T17:37:17.181Z,21.50
2017-05-17T17:39:45.926Z,21.40
2017-05-17T17:42:14.580Z,21.40
2017-05-17T17:44:43.088Z,21.30
2017-05-17T17:47:11.581Z,21.30
2017-05-17T17:49:40.129Z,21.20
2017-05-17T17:52:08.636Z,21.10
2017-05-17T17:54:37.145Z,21.00
2017-05-17T17:57:05.692Z,21.00
2017-05-17T17:59:34.208Z,20.90
2017-05-17T18:02:02.722Z,20.80
2017-05-17T18:04:31.271Z,20.70
2017-05-17T18:06:59.768Z,20.50
2017-05-17T18:09:28.268Z,20.50
2017-05-17T18:11:56.815Z,20.50
2017-05-17T18:14:25.320Z,20.40
2017-05-17T18:16:53.826Z,20.20
2017-05-17T18:19:22.403Z,20.10
2017-05-17T18:21:50.912Z,20.00
2017-05-17T18:24:19.451Z,19.90
2017-05-17T18:26:48.005Z,19.80
2017-05-17T18:29:16.517Z,19.80
2017-05-17T18:31:45.041Z,19.60
2017-05-17T18:34:13.592Z,19.60
2017-05-17T18:36:42.132Z,19.50
2017-05-17T18:39:10.665Z,19.40
2017-05-17T18:41:39.231Z,19.40
2017-05-17T18:44:07.744Z,19.30
2017-05-17T18:46:36.269Z,19.20
2017-05-17T18:49:04.848Z,19.10
2017-05-17T18:51:33.846Z,19.00
2017-05-17T18:54:02.380Z,19.00
2017-05-17T18:56:30.963Z,18.90
2017-05-17T18:58:59.468Z,18.80
2017-05-17T19:01:27.984Z,18.70
2017-05-17T19:03:56.531Z,18.60
2017-05-17T19:06:25.049Z,18.60
2017-05-17T19:08:53.559Z,18.60
2017-05-17T19:11:22.113Z,18.40
2017-05-17T19:13:50.628Z,18.30
2017-05-17T19:16:19.137Z,18.20
2017-05-17T19:18:47.682Z,18.20
2017-05-17T19:21:16.190Z,18.30
2017-05-17T19:23:44.699Z,18.20
2017-05-17T19:26:13.271Z,18.20
2017-05-17T19:28:41.780Z,18.10
2017-05-17T19:31:10.291Z,18.00
2017-05-17T19:33:38.845Z,18.00
2017-05-17T19:36:07.356Z,18.00
2017-05-17T19:38:35.877Z,17.90
2017-05-17T19:41:04.431Z,17.90
2017-05-17T19:43:32.957Z,17.80
2017-05-17T19:46:01.468Z,17.70
2017-05-17T19:48:30.036Z,17.80
2017-05-17T19:50:58.549Z,17.70
2017-05-17T19:53:27.054Z,17.70
2017-05-17T19:55:55.596Z,17.70
2017-05-17T19:58:24.105Z,17.70
2017-05-17T20:00:52.617Z,17.70
2017-05-17T20:03:21.372Z,17.60
2017-05-17T20:05:49.887Z,17.50
2017-05-17T20:08:18.456Z,17.60
2017-05-17T20:10:47.008Z,17.50
2017-05-17T20:13:15.549Z,17.40
2017-05-17T20:15:44.051Z,17.50
2017-05-17T20:18:12.595Z,17.30
2017-05-17T20:20:41.154Z,17.20
2017-05-17T20:23:09.687Z,17.20
2017-05-17T20:25:38.240Z,17.10
2017-05-17T20:28:06.802Z,17.10
2017-05-17T20:30:35.331Z,17.00
2017-05-17T20:33:03.900Z,17.00
2017-05-17T20:35:32.409Z,16.90
2017-05-17T20:38:00.930Z,16.90
2017-05-17T20:40:29.483Z,17.00
2017-05-17T20:42:57.996Z,16.90
2017-05-17T20:45:26.499Z,16.80
2017-05-17T20:47:55.048Z,16.70
2017-05-17T20:50:23.570Z,16.70
2017-05-17T20:52:52.087Z,16.80
2017-05-17T20:55:20.662Z,16.70
2017-05-17T20:57:49.290Z,16.70
2017-05-17T21:00:18.797Z,16.70
2017-05-17T21:02:47.353Z,16.70
2017-05-17T21:05:15.884Z,16.70
2017-05-17T21:07:44.406Z,16.70
2017-05-17T21:10:12.961Z,16.70
2017-05-17T21:12:41.464Z,16.70
2017-05-17T21:15:09.972Z,16.60
2017-05-17T21:17:38.525Z,16.50
2017-05-17T21:20:07.030Z,16.50
2017-05-17T21:22:35.569Z,16.60
2017-05-17T21:25:04.133Z,16.60
2017-05-17T21:27:32.639Z,16.70
2017-05-17T21:30:01.217Z,16.50
2017-05-17T21:32:29.780Z,16.50
2017-05-17T21:34:58.293Z,16.50
2017-05-17T21:37:26.810Z,16.50
2017-05-17T21:39:55.401Z,16.50
2017-05-17T21:42:23.925Z,16.40
2017-05-17T21:44:52.433Z,16.30
2017-05-17T21:47:20.976Z,16.20
2017-05-17T21:49:49.487Z,16.10
2017-05-17T21:52:17.997Z,16.10
2017-05-17T21:54:46.545Z,16.10
2017-05-17T21:57:15.071Z,16.00
2017-05-17T21:59:43.586Z,15.90
2017-05-17T22:02:12.141Z,15.80
2017-05-17T22:04:40.647Z,15.90
2017-05-17T22:07:09.175Z,15.80
2017-05-17T22:09:37.723Z,15.80
2017-05-17T22:12:06.230Z,15.70
2017-05-17T22:14:34.818Z,15.80
2017-05-17T22:17:03.365Z,15.70
2017-05-17T22:19:31.897Z,15.70
2017-05-17T22:22:00.443Z,15.60
2017-05-17T22:24:28.992Z,15.50
2017-05-17T22:26:58.009Z,15.40
2017-05-17T22:29:26.583Z,15.40
2017-05-17T22:31:55.139Z,15.30
2017-05-17T22:34:23.653Z,15.20
2017-05-17T22:36:52.200Z,15.20
2017-05-17T22:39:20.749Z,15.20
2017-05-17T22:41:49.267Z,15.10
2017-05-17T22:44:17.797Z,15.00
2017-05-17T22:46:46.354Z,15.00
2017-05-17T22:49:14.870Z,14.90
2017-05-17T22:51:43.372Z,14.90
2017-05-17T22:54:11.933Z,14.80
2017-05-17T22:56:40.450Z,14.80
2017-05-17T22:59:08.961Z,14.80
2017-05-17T23:01:37.505Z,14.80
2017-05-17T23:04:06.027Z,14.70
2017-05-17T23:06:34.540Z,14.80
2017-05-17T23:09:03.152Z,14.70
2017-05-17T23:11:31.661Z,14.70
2017-05-17T23:14:00.164Z,14.60
2017-05-17T23:16:27.946Z,14.60
2017-05-17T23:18:56.454Z,14.70
2017-05-17T23:21:24.961Z,14.70
2017-05-17T23:23:53.541Z,14.70
2017-05-17T23:26:22.045Z,14.70
2017-05-17T23:28:50.576Z,14.60
2017-05-17T23:31:19.183Z,14.60
2017-05-17T23:33:47.697Z,14.50
2017-05-17T23:36:16.204Z,14.40
2017-05-17T23:38:44.749Z,14.50
2017-05-17T23:41:13.254Z,14.40
2017-05-17T23:43:41.761Z,14.40
2017-05-17T23:46:10.308Z,14.40
2017-05-17T23:48:38.814Z,14.30
2017-05-17T23:51:07.321Z,14.30
2017-05-17T23:53:35.865Z,14.30
2017-05-17T23:56:04.386Z,14.30
2017-05-17T23:58:32.948Z,14.30
